Bucuresti — BUCURE — position and weather

sailwx.info

Track history (hours):
 
Tides and Currents Weather Stations Pressure Air Temp Water Temp Dewpoint Dewpoint Depression Visibility Wind Speed Wind Dir Waves Ship Positions

Bucuresti

Last reported at 2018-Jun-19 19:26 UTC. Time now 2018-Jun-19 19:48 UTC.
Position N 44°20' E 028°41'.

Length 26 m; draft 3.2 m.

Type: Tug. MMSI: 264900303.

Date/timePositionNaut miles runAvg speedWind from/ knotsBaromVisibWave heightAir tempDewpointWater temp
2018-Jun-19 19:26N 44°20' E 028°41'0 0.0
2018-Jun-19 18:59N 44°20' E 028°41'0 0.0
2018-Jun-19 18:29N 44°20' E 028°41'0 0.0
2018-Jun-19 17:56N 44°20' E 028°41'0 0.0
2018-Jun-19 17:23N 44°20' E 028°41'0 0.0
2018-Jun-19 16:59N 44°20' E 028°41'0 0.0
2018-Jun-19 16:29N 44°20' E 028°41'0 0.0
2018-Jun-19 15:59N 44°20' E 028°41'0 0.0
2018-Jun-19 15:29N 44°20' E 028°41'0 0.0
2018-Jun-19 14:56N 44°20' E 028°41'0 0.0
2018-Jun-19 14:29N 44°20' E 028°41'0 0.0
2018-Jun-19 13:59N 44°20' E 028°41'0 0.0
2018-Jun-19 13:29N 44°20' E 028°41'0 0.0
2018-Jun-19 12:56N 44°20' E 028°41'0 0.0
2018-Jun-19 12:26N 44°20' E 028°41'0 0.0
2018-Jun-19 11:59N 44°20' E 028°41'0 0.0
2018-Jun-19 11:29N 44°20' E 028°41'0 0.0
2018-Jun-19 10:59N 44°20' E 028°41'0 0.0
2018-Jun-19 10:29N 44°20' E 028°41'0 0.0
2018-Jun-19 09:59N 44°20' E 028°41'0 0.0
2018-Jun-19 09:29N 44°20' E 028°41'0 0.0
2018-Jun-19 08:59N 44°20' E 028°41'0 0.0
2018-Jun-19 08:29N 44°20' E 028°41'0 0.0
2018-Jun-19 07:59N 44°20' E 028°41'0 0.0
2018-Jun-19 07:29N 44°20' E 028°41'0 0.0
2018-Jun-19 07:00N 44°20' E 028°41'0 0.0
2018-Jun-19 06:29N 44°20' E 028°41'0 0.0
2018-Jun-19 05:59N 44°20' E 028°41'0 0.0
2018-Jun-19 05:26N 44°20' E 028°41'0 0.0
2018-Jun-19 04:59N 44°20' E 028°41'0 0.0
2018-Jun-19 04:29N 44°20' E 028°41'0 0.0
2018-Jun-19 03:59N 44°20' E 028°41'0 0.0
2018-Jun-19 03:29N 44°20' E 028°41'0 0.0
2018-Jun-19 02:59N 44°20' E 028°41'0 0.0
2018-Jun-19 02:29N 44°20' E 028°41'0 0.0
2018-Jun-19 01:59N 44°20' E 028°41'0 0.0
2018-Jun-19 01:29N 44°20' E 028°41'0 0.0
2018-Jun-19 00:59N 44°20' E 028°41'0 0.0
2018-Jun-19 00:29N 44°20' E 028°41'0 0.0
2018-Jun-18 23:59N 44°20' E 028°41'0 0.0
2018-Jun-18 23:29N 44°20' E 028°41'0 0.0
2018-Jun-18 22:59N 44°20' E 028°41'0 0.0
2018-Jun-18 22:29N 44°20' E 028°41'0 0.0
2018-Jun-18 21:56N 44°20' E 028°41'0 0.0
2018-Jun-18 21:29N 44°20' E 028°41'0 0.0
2018-Jun-18 20:59N 44°20' E 028°41'0 0.0
2018-Jun-18 20:29N 44°20' E 028°41'0 0.0
2018-Jun-18 19:59N 44°20' E 028°41'0 0.0
2018-Jun-18 19:29N 44°20' E 028°41'0 0.0
2018-Jun-18 18:59N 44°20' E 028°41'0 0.0
2018-Jun-18 18:29N 44°20' E 028°41'0 0.0
2018-Jun-18 17:59N 44°20' E 028°41'0 0.0
2018-Jun-18 17:29N 44°20' E 028°41'0 0.0
2018-Jun-18 16:56N 44°20' E 028°41'0 0.0
2018-Jun-18 16:29N 44°20' E 028°41'0 0.0
2018-Jun-18 15:59N 44°20' E 028°41'0 0.0
2018-Jun-18 15:17N 44°20' E 028°41'0 0.0
2018-Jun-18 14:59N 44°20' E 028°41'0 0.0
2018-Jun-18 14:29N 44°20' E 028°41'0 0.0
2018-Jun-18 13:59N 44°20' E 028°41'0 0.0
2018-Jun-18 13:26N 44°20' E 028°41'0 0.0
2018-Jun-18 12:56N 44°20' E 028°41'0 0.0
2018-Jun-18 12:29N 44°20' E 028°41'2 4.5
2018-Jun-18 11:59N 44°18' E 028°43'3 4.4
2018-Jun-18 11:20N 44°18' E 028°47'0 0.0
2018-Jun-18 10:59N 44°18' E 028°47'0 0.0
2018-Jun-18 10:29N 44°18' E 028°47'0 0.0
2018-Jun-18 09:56N 44°18' E 028°46'0 0.0
2018-Jun-18 09:26N 44°18' E 028°47'0 0.0
2018-Jun-18 08:59N 44°18' E 028°47'0 0.0
2018-Jun-18 08:29N 44°18' E 028°46'4 7.9
2018-Jun-18 08:01N 44°19' E 028°42'1 2.0
2018-Jun-18 07:27N 44°20' E 028°41'0 0.0
2018-Jun-18 07:00N 44°20' E 028°41'0 0.0
2018-Jun-18 06:30N 44°20' E 028°41'0 0.0
2018-Jun-18 06:00N 44°20' E 028°41'0 0.0
2018-Jun-18 05:30N 44°20' E 028°41'0 0.0
2018-Jun-18 05:00N 44°20' E 028°41'0 0.0
2018-Jun-18 04:30N 44°20' E 028°41'0 0.0
2018-Jun-18 04:00N 44°20' E 028°41'0 0.0
2018-Jun-18 03:30N 44°20' E 028°41'0 0.0
2018-Jun-18 03:00N 44°20' E 028°41'0 0.0
2018-Jun-18 02:30N 44°20' E 028°41'0 0.0
2018-Jun-18 02:00N 44°20' E 028°41'0 0.0
2018-Jun-18 01:30N 44°20' E 028°41'0 0.0
2018-Jun-18 01:00N 44°20' E 028°41'0 0.0
2018-Jun-18 00:30N 44°20' E 028°41'0 0.0
2018-Jun-18 00:00N 44°20' E 028°41'0 0.0
2018-Jun-17 23:30N 44°20' E 028°41'0 0.0
2018-Jun-17 23:00N 44°20' E 028°41'0 0.0
2018-Jun-17 22:30N 44°20' E 028°41'0 0.0
2018-Jun-17 22:00N 44°20' E 028°41'0 0.0
2018-Jun-17 21:30N 44°20' E 028°41'0 0.0
2018-Jun-17 21:00N 44°20' E 028°41'0 0.0
2018-Jun-17 20:30N 44°20' E 028°41'0 0.0
2018-Jun-17 19:57N 44°20' E 028°41'0 0.0
2018-Jun-17 19:30N 44°20' E 028°41'0 0.0
2018-Jun-17 19:00N 44°20' E 028°41'0 0.0
2018-Jun-17 18:30N 44°20' E 028°41'0 0.0
2018-Jun-17 18:00N 44°20' E 028°41'0 0.0
2018-Jun-17 17:30N 44°20' E 028°41'0 0.0
2018-Jun-17 17:00N 44°20' E 028°41'0 0.0
2018-Jun-17 16:30N 44°20' E 028°41'0 0.0
2018-Jun-17 16:00N 44°20' E 028°41'0 0.0
2018-Jun-17 15:30N 44°20' E 028°41'0 0.0
2018-Jun-17 15:00N 44°20' E 028°41'0 0.0
2018-Jun-17 14:27N 44°20' E 028°41'0 0.0
2018-Jun-17 14:00N 44°20' E 028°41'0 0.0
2018-Jun-17 13:27N 44°20' E 028°41'0 0.0
2018-Jun-17 13:00N 44°20' E 028°41'0 0.0
2018-Jun-17 12:30N 44°20' E 028°41'0 0.0
2018-Jun-17 12:00N 44°20' E 028°41'0 0.0
2018-Jun-17 11:24N 44°20' E 028°41'0 0.0
2018-Jun-17 11:00N 44°20' E 028°41'0 0.0
2018-Jun-17 10:30N 44°20' E 028°41'0 0.0
2018-Jun-17 10:00N 44°20' E 028°41'0 0.0
2018-Jun-17 09:30N 44°20' E 028°41'0 0.0
2018-Jun-17 08:57N 44°20' E 028°41'0 0.0
2018-Jun-17 08:30N 44°20' E 028°41'0 0.0
2018-Jun-17 07:57N 44°20' E 028°41'0 0.0
2018-Jun-17 07:30N 44°20' E 028°41'0 0.0
2018-Jun-17 07:00N 44°20' E 028°41'0 0.0
2018-Jun-17 06:30N 44°20' E 028°41'0 0.0
2018-Jun-17 05:54N 44°20' E 028°41'0 0.0
2018-Jun-17 05:27N 44°20' E 028°41'0 0.0
2018-Jun-17 05:00N 44°20' E 028°41'0 0.0
2018-Jun-17 04:30N 44°20' E 028°41'0 0.0
2018-Jun-17 04:00N 44°20' E 028°41'0 0.0
2018-Jun-17 03:30N 44°20' E 028°41'0 0.0
2018-Jun-17 03:00N 44°20' E 028°41'0 0.0
2018-Jun-17 02:30N 44°20' E 028°41'0 0.0
2018-Jun-17 02:00N 44°20' E 028°41'0 0.0
2018-Jun-17 01:30N 44°20' E 028°41'0 0.0
2018-Jun-17 01:00N 44°20' E 028°41'0 0.0
2018-Jun-17 00:30N 44°20' E 028°41'0 0.0
2018-Jun-17 00:00N 44°20' E 028°41'0 0.0
2018-Jun-16 23:30N 44°20' E 028°41'0 0.0
2018-Jun-16 23:00N 44°20' E 028°41'0 0.0
2018-Jun-16 22:27N 44°20' E 028°41'0 0.0
2018-Jun-16 22:00N 44°20' E 028°41'0 0.0
2018-Jun-16 21:30N 44°20' E 028°41'0 0.0
2018-Jun-16 21:00N 44°20' E 028°41'0 0.0
2018-Jun-16 20:30N 44°20' E 028°41'0 0.0
2018-Jun-16 20:00N 44°20' E 028°41'0 0.0
2018-Jun-16 19:30N 44°20' E 028°41'0 0.0
2018-Jun-16 18:57N 44°20' E 028°41'0 0.0
2018-Jun-16 18:30N 44°20' E 028°41'0 0.8
2018-Jun-16 18:00N 44°20' E 028°41'0 0.4
2018-Jun-16 17:28N 44°20' E 028°41'0 0.8
2018-Jun-16 16:58N 44°20' E 028°41'0 0.4
2018-Jun-16 16:28N 44°20' E 028°41'0 0.9
2018-Jun-16 16:00N 44°20' E 028°41'0 0.0
2018-Jun-16 15:30N 44°20' E 028°41'0 0.0
2018-Jun-16 15:00N 44°20' E 028°41'0 0.0
2018-Jun-16 14:30N 44°20' E 028°41'0 0.0
2018-Jun-16 14:00N 44°20' E 028°41'0 0.0
2018-Jun-16 13:30N 44°20' E 028°41'0 0.0
2018-Jun-16 13:00N 44°20' E 028°41'0 0.0
2018-Jun-16 12:30N 44°20' E 028°41'0 0.0
2018-Jun-16 12:00N 44°20' E 028°41'0 0.0
2018-Jun-16 11:30N 44°20' E 028°41'0 0.0
2018-Jun-16 10:57N 44°20' E 028°41'0 0.0
2018-Jun-16 10:30N 44°20' E 028°41'0 0.0
2018-Jun-16 10:00N 44°20' E 028°41'0 0.0
2018-Jun-16 09:21N 44°20' E 028°41'0 0.0
2018-Jun-16 09:00N 44°20' E 028°41'0 0.0
2018-Jun-16 08:30N 44°20' E 028°41'0 0.0
2018-Jun-16 08:00N 44°20' E 028°41'0 0.0
2018-Jun-16 07:30N 44°20' E 028°41'0 0.0
2018-Jun-16 07:00N 44°20' E 028°41'0 0.0
2018-Jun-16 06:30N 44°20' E 028°41'0 0.0
2018-Jun-16 06:00N 44°20' E 028°41'0 0.0
2018-Jun-16 05:30N 44°20' E 028°41'0 0.0
2018-Jun-16 05:00N 44°20' E 028°41'0 0.0
2018-Jun-16 04:30N 44°20' E 028°41'0 0.0
2018-Jun-16 04:00N 44°20' E 028°41'0 0.0
2018-Jun-16 03:30N 44°20' E 028°41'0 0.0
2018-Jun-16 03:00N 44°20' E 028°41'0 0.0
2018-Jun-16 02:30N 44°20' E 028°41'0 0.0
2018-Jun-16 02:00N 44°20' E 028°41'0 0.0
2018-Jun-16 01:30N 44°20' E 028°41'0 0.0
2018-Jun-16 01:00N 44°20' E 028°41'0 0.0
2018-Jun-16 00:30N 44°20' E 028°41'0 0.0
2018-Jun-16 00:00N 44°20' E 028°41'0 0.0
2018-Jun-15 23:30N 44°20' E 028°41'0 0.0
2018-Jun-15 23:00N 44°20' E 028°41'0 0.0
2018-Jun-15 22:30N 44°20' E 028°41'0 0.0
2018-Jun-15 22:00N 44°20' E 028°41'0 0.0
2018-Jun-15 21:30N 44°20' E 028°41'0 0.0
2018-Jun-15 21:00N 44°20' E 028°41'0 0.0
2018-Jun-15 20:30N 44°20' E 028°41'0 0.0
2018-Jun-15 20:00N 44°20' E 028°41'0 0.0
2018-Jun-15 19:30N 44°20' E 028°41'0 0.0
2018-Jun-15 19:00N 44°20' E 028°41'0 0.0
2018-Jun-15 18:30N 44°20' E 028°41'0 0.0
2018-Jun-15 18:00N 44°20' E 028°41'0 0.0
2018-Jun-15 17:24N 44°20' E 028°41'0 0.0
2018-Jun-15 17:00N 44°20' E 028°41'0 0.0
2018-Jun-15 16:30N 44°20' E 028°41'0 0.0
2018-Jun-15 16:00N 44°20' E 028°41'0 0.0
2018-Jun-15 15:27N 44°20' E 028°41'0 0.0
2018-Jun-15 15:00N 44°20' E 028°41'0 0.0
2018-Jun-15 14:30N 44°20' E 028°41'0 0.0
2018-Jun-15 14:00N 44°20' E 028°41'0 0.0
2018-Jun-15 13:30N 44°20' E 028°41'0 0.0
2018-Jun-15 13:00N 44°20' E 028°41'0 0.0
2018-Jun-15 12:30N 44°20' E 028°41'0 0.0
2018-Jun-15 12:00N 44°20' E 028°41'0 0.0
2018-Jun-15 11:30N 44°20' E 028°41'0 0.0
2018-Jun-15 11:00N 44°20' E 028°41'0 0.0
2018-Jun-15 10:30N 44°20' E 028°41'0 0.0
2018-Jun-15 10:00N 44°20' E 028°41'0 0.0
2018-Jun-15 09:30N 44°20' E 028°41'0 0.0
2018-Jun-15 09:00N 44°20' E 028°41'0 0.0
2018-Jun-15 08:30N 44°20' E 028°41'0 0.0
2018-Jun-15 08:00N 44°20' E 028°41'0 0.0
2018-Jun-15 07:30N 44°20' E 028°41'0 0.0
2018-Jun-15 07:00N 44°20' E 028°41'0 0.0
2018-Jun-15 06:24N 44°20' E 028°41'0 0.0
2018-Jun-15 06:00N 44°20' E 028°41'0 0.0
2018-Jun-15 05:24N 44°20' E 028°41'0 0.0
2018-Jun-15 04:57N 44°20' E 028°41'0 0.0
2018-Jun-15 04:30N 44°20' E 028°41'0 0.0
2018-Jun-15 04:00N 44°20' E 028°41'0 0.0
2018-Jun-15 03:30N 44°20' E 028°41'0 0.0
2018-Jun-15 03:00N 44°20' E 028°41'0 0.0
2018-Jun-15 02:30N 44°20' E 028°41'0 0.0
2018-Jun-15 02:00N 44°20' E 028°41'0 0.0
2018-Jun-15 01:30N 44°20' E 028°41'0 0.0
2018-Jun-15 01:00N 44°20' E 028°41'0 0.0
2018-Jun-15 00:27N 44°20' E 028°41'0 0.0
2018-Jun-14 23:57N 44°20' E 028°41'0 0.0
2018-Jun-14 23:30N 44°20' E 028°41'0 0.0
2018-Jun-14 23:00N 44°20' E 028°41'0 0.0
2018-Jun-14 22:30N 44°20' E 028°41'0 0.0
2018-Jun-14 22:00N 44°20' E 028°41'0 0.0
2018-Jun-14 21:30N 44°20' E 028°41'0 0.0
2018-Jun-14 20:57N 44°20' E 028°41'0 0.0
2018-Jun-14 20:27N 44°20' E 028°41'0 0.0
2018-Jun-14 20:00N 44°20' E 028°41'0 0.0
2018-Jun-14 19:24N 44°20' E 028°41'0 0.0
2018-Jun-14 18:59N 44°20' E 028°41'0 0.0
2018-Jun-14 18:29N 44°20' E 028°41'0 0.0
2018-Jun-14 18:00N 44°20' E 028°41'0 0.0
2018-Jun-14 16:21N 44°20' E 028°41'0 0.0
2018-Jun-14 15:44N 44°20' E 028°41'0 0.0
2018-Jun-14 15:15N 44°20' E 028°41'0 0.0
2018-Jun-14 14:56N 44°20' E 028°41'0 0.0
2018-Jun-14 14:18N 44°20' E 028°41'0 0.0
2018-Jun-14 13:59N 44°20' E 028°41'0 0.0
2018-Jun-14 13:16N 44°20' E 028°41'0 0.0
2018-Jun-14 13:00N 44°20' E 028°41'0 0.0
2018-Jun-14 12:30N 44°20' E 028°41'0 0.0
2018-Jun-14 12:00N 44°20' E 028°41'0 0.0
2018-Jun-14 11:30N 44°20' E 028°41'0 0.0
2018-Jun-14 11:00N 44°20' E 028°41'0 0.0
2018-Jun-14 10:30N 44°20' E 028°41'0 0.0
2018-Jun-14 10:00N 44°20' E 028°41'0 0.0
2018-Jun-14 09:30N 44°20' E 028°41'0 0.0
2018-Jun-14 09:00N 44°20' E 028°41'0 0.0
2018-Jun-14 08:30N 44°20' E 028°41'2 3.2
2018-Jun-14 08:00N 44°19' E 028°43'2 3.5
2018-Jun-14 07:31N 44°18' E 028°45'3 6.3
2018-Jun-14 07:00N 44°20' E 028°41'0 0.0
2018-Jun-14 06:24N 44°20' E 028°41'0 0.0
2018-Jun-14 06:00N 44°20' E 028°41'0 0.0
2018-Jun-14 05:30N 44°20' E 028°41'0 0.0
2018-Jun-14 05:00N 44°20' E 028°41'0 0.0
2018-Jun-14 04:30N 44°20' E 028°41'0 0.0
2018-Jun-14 04:00N 44°20' E 028°41'0 0.0
2018-Jun-14 03:30N 44°20' E 028°41'0 0.0
2018-Jun-14 02:57N 44°20' E 028°41'0 0.0
2018-Jun-14 02:30N 44°20' E 028°41'0 0.0
2018-Jun-14 02:00N 44°20' E 028°41'0 0.0
2018-Jun-14 01:27N 44°20' E 028°41'0 0.0
2018-Jun-14 00:57N 44°20' E 028°41'0 0.0
2018-Jun-14 00:24N 44°20' E 028°41'0 0.0
2018-Jun-13 23:57N 44°20' E 028°41'0 0.0
2018-Jun-13 23:30N 44°20' E 028°41'0 0.0
2018-Jun-13 23:00N 44°20' E 028°41'0 0.0
2018-Jun-13 22:30N 44°20' E 028°41'0 0.0
2018-Jun-13 22:00N 44°20' E 028°41'0 0.0
2018-Jun-13 21:30N 44°20' E 028°41'0 0.0
2018-Jun-13 20:57N 44°20' E 028°41'0 0.0
2018-Jun-13 20:24N 44°20' E 028°41'0 0.0
2018-Jun-13 20:00N 44°20' E 028°41'0 0.0
2018-Jun-13 19:30N 44°20' E 028°41'0 0.0
2018-Jun-13 19:00N 44°20' E 028°41'0 0.0
2018-Jun-13 18:30N 44°20' E 028°41'0 0.0
2018-Jun-13 17:51N 44°20' E 028°41'0 0.0
2018-Jun-13 17:30N 44°20' E 028°41'0 0.0
2018-Jun-13 16:45N 44°20' E 028°41'0 0.0
2018-Jun-13 16:24N 44°20' E 028°41'0 0.0
2018-Jun-13 15:57N 44°20' E 028°41'0 0.0
2018-Jun-13 15:27N 44°20' E 028°41'0 0.0
2018-Jun-13 15:00N 44°20' E 028°41'0 0.0
2018-Jun-13 14:30N 44°20' E 028°41'0 0.0
2018-Jun-13 14:00N 44°20' E 028°41'0 0.0
2018-Jun-13 13:27N 44°20' E 028°41'0 0.0
2018-Jun-13 13:00N 44°20' E 028°41'0 0.0
2018-Jun-13 12:30N 44°20' E 028°41'0 0.0
2018-Jun-13 12:00N 44°20' E 028°41'0 0.0
2018-Jun-13 11:30N 44°20' E 028°41'0 0.0
2018-Jun-13 11:00N 44°20' E 028°41'0 0.0
2018-Jun-13 10:30N 44°20' E 028°41'0 0.0
2018-Jun-13 10:00N 44°20' E 028°41'2 4.5
2018-Jun-13 09:30N 44°19' E 028°43'3 5.2
2018-Jun-13 09:00N 44°18' E 028°47'0 0.1
2018-Jun-13 08:30N 44°18' E 028°47'0 0.2
2018-Jun-13 07:58N 44°18' E 028°47'0 0.2
2018-Jun-13 07:30N 44°18' E 028°47'4 9.0
2018-Jun-13 07:01N 44°20' E 028°41'0 0.5
2018-Jun-13 06:28N 44°20' E 028°41'0 0.0
2018-Jun-13 05:46N 44°20' E 028°41'0 0.0
2018-Jun-13 05:19N 44°20' E 028°41'0 0.0
2018-Jun-13 04:58N 44°20' E 028°41'0 0.0
2018-Jun-13 04:28N 44°20' E 028°41'0 0.0
2018-Jun-13 03:58N 44°20' E 028°41'0 0.0
2018-Jun-13 03:28N 44°20' E 028°41'0 0.0
2018-Jun-13 02:58N 44°20' E 028°41'0 0.0
2018-Jun-13 02:28N 44°20' E 028°41'0 0.0
2018-Jun-13 01:58N 44°20' E 028°41'0 0.0
2018-Jun-13 01:28N 44°20' E 028°41'0 0.0
2018-Jun-13 00:58N 44°20' E 028°41'0 0.0
2018-Jun-13 00:28N 44°20' E 028°41'0 0.0
2018-Jun-12 23:58N 44°20' E 028°41'0 0.0
2018-Jun-12 23:28N 44°20' E 028°41'0 0.0
2018-Jun-12 22:58N 44°20' E 028°41'0 0.0
2018-Jun-12 22:28N 44°20' E 028°41'0 0.0
2018-Jun-12 21:58N 44°20' E 028°41'0 0.0
2018-Jun-12 21:28N 44°20' E 028°41'0 0.0
2018-Jun-12 20:58N 44°20' E 028°41'0 0.0
2018-Jun-12 20:28N 44°20' E 028°41'0 0.0
2018-Jun-12 19:55N 44°20' E 028°41'0 0.0
2018-Jun-12 19:28N 44°20' E 028°41'0 0.0
2018-Jun-12 18:58N 44°20' E 028°41'0 0.0
2018-Jun-12 18:28N 44°20' E 028°41'0 0.0
2018-Jun-12 17:52N 44°20' E 028°41'3 7.7
2018-Jun-12 17:30N 44°18' E 028°44'2 3.3
2018-Jun-12 16:55N 44°18' E 028°47'0 0.0
2018-Jun-12 16:28N 44°18' E 028°47'0 0.1
2018-Jun-12 15:58N 44°18' E 028°47'0 0.3
2018-Jun-12 15:30N 44°18' E 028°47'1 1.1
2018-Jun-12 15:00N 44°18' E 028°46'4 8.0
2018-Jun-12 14:30N 44°20' E 028°41'0 0.0
2018-Jun-12 14:00N 44°20' E 028°41'0 0.0
2018-Jun-12 13:27N 44°20' E 028°41'0 0.0
2018-Jun-12 12:42N 44°20' E 028°41'0 0.0
2018-Jun-12 12:24N 44°20' E 028°41'0 0.0
2018-Jun-12 12:00N 44°20' E 028°41'2 4.3
2018-Jun-12 11:30N 44°19' E 028°43'3 4.9
2018-Jun-12 10:58N 44°18' E 028°47'0 0.0
2018-Jun-12 10:28N 44°18' E 028°47'0 0.0
2018-Jun-12 09:58N 44°18' E 028°47'0 0.0
2018-Jun-12 09:28N 44°18' E 028°47'0 0.0
2018-Jun-12 08:58N 44°18' E 028°47'0 0.0
2018-Jun-12 08:28N 44°18' E 028°47'0 0.0
2018-Jun-12 07:58N 44°18' E 028°47'0 0.0
2018-Jun-12 07:29N 44°18' E 028°47'4 9.3
2018-Jun-12 07:00N 44°20' E 028°41'0 0.5
2018-Jun-12 06:29N 44°20' E 028°41'0 0.5
2018-Jun-12 05:56N 44°21' E 028°41'0 0.4
2018-Jun-12 05:30N 44°20' E 028°41'0 0.3
2018-Jun-12 04:59N 44°20' E 028°41'0 0.0
2018-Jun-12 04:29N 44°20' E 028°41'0 0.0
2018-Jun-12 03:59N 44°20' E 028°41'0 0.0
2018-Jun-12 03:29N 44°20' E 028°41'0 0.0
2018-Jun-12 02:59N 44°20' E 028°41'0 0.0
2018-Jun-12 02:26N 44°20' E 028°41'0 0.0
2018-Jun-12 01:56N 44°20' E 028°41'0 0.0
2018-Jun-12 01:29N 44°20' E 028°41'0 0.0
2018-Jun-12 00:59N 44°20' E 028°41'0 0.0
2018-Jun-12 00:29N 44°20' E 028°41'0 0.0
2018-Jun-11 23:59N 44°20' E 028°41'0 0.0
2018-Jun-11 23:29N 44°20' E 028°41'0 0.0
2018-Jun-11 22:59N 44°20' E 028°41'0 0.0
2018-Jun-11 22:29N 44°20' E 028°41'0 0.0
2018-Jun-11 21:59N 44°20' E 028°41'0 0.0
2018-Jun-11 21:29N 44°20' E 028°41'0 0.0
2018-Jun-11 20:59N 44°20' E 028°41'0 0.0
2018-Jun-11 20:29N 44°20' E 028°41'0 0.0
2018-Jun-11 19:59N 44°20' E 028°41'0 0.0
2018-Jun-11 19:29N 44°20' E 028°41'0 0.0
2018-Jun-11 18:59N 44°20' E 028°41'0 0.0
2018-Jun-11 18:26N 44°20' E 028°41'0 0.0
2018-Jun-11 17:59N 44°20' E 028°41'0 0.0
2018-Jun-11 17:29N 44°20' E 028°41'0 0.0
2018-Jun-11 16:59N 44°20' E 028°41'0 0.0
2018-Jun-11 16:29N 44°20' E 028°41'0 0.0
2018-Jun-11 15:50N 44°20' E 028°41'0 0.0
2018-Jun-11 15:29N 44°20' E 028°41'0 0.0
2018-Jun-11 14:59N 44°20' E 028°41'0 0.0
2018-Jun-11 14:08N 44°20' E 028°41'0 0.0
2018-Jun-11 13:56N 44°20' E 028°41'0 0.0
2018-Jun-11 13:29N 44°20' E 028°41'0 0.0
2018-Jun-11 12:59N 44°20' E 028°41'0 0.0
2018-Jun-11 12:26N 44°20' E 028°41'0 0.0
2018-Jun-11 11:56N 44°20' E 028°41'2 5.3
2018-Jun-11 11:30N 44°18' E 028°43'2 4.6
2018-Jun-11 10:59N 44°18' E 028°47'0 0.0
2018-Jun-11 10:29N 44°18' E 028°47'4 8.1
2018-Jun-11 10:00N 44°19' E 028°42'1 1.4
2018-Jun-11 09:17N 44°20' E 028°41'0 0.0
2018-Jun-11 08:59N 44°20' E 028°41'0 0.0
2018-Jun-11 08:29N 44°20' E 028°41'0 0.0
2018-Jun-11 07:59N 44°20' E 028°41'0 0.0
2018-Jun-11 07:29N 44°20' E 028°41'0 0.0
2018-Jun-11 06:56N 44°20' E 028°41'0 0.0
2018-Jun-11 06:29N 44°20' E 028°41'0 0.0
2018-Jun-11 05:59N 44°20' E 028°41'0 0.0
2018-Jun-11 05:29N 44°20' E 028°41'0 0.0
2018-Jun-11 04:59N 44°20' E 028°41'0 0.0
2018-Jun-11 04:29N 44°20' E 028°41'0 0.0
2018-Jun-11 03:59N 44°20' E 028°41'0 0.0
2018-Jun-11 03:29N 44°20' E 028°41'0 0.0
2018-Jun-11 02:56N 44°20' E 028°41'0 0.0
2018-Jun-11 02:29N 44°20' E 028°41'0 0.0
2018-Jun-11 01:59N 44°20' E 028°41'0 0.0
2018-Jun-11 01:29N 44°20' E 028°41'0 0.0
2018-Jun-11 00:56N 44°20' E 028°41'0 0.0
2018-Jun-11 00:29N 44°20' E 028°41'0 0.0
2018-Jun-10 23:59N 44°20' E 028°41'0 0.0
2018-Jun-10 23:29N 44°20' E 028°41'0 0.0
2018-Jun-10 22:59N 44°20' E 028°41'0 0.0
2018-Jun-10 22:29N 44°20' E 028°41'0 0.0
2018-Jun-10 21:59N 44°20' E 028°41'0 0.0
2018-Jun-10 21:26N 44°20' E 028°41'0 0.0
2018-Jun-10 20:59N 44°20' E 028°41'0 0.0
2018-Jun-10 20:29N 44°20' E 028°41'0 0.0
2018-Jun-10 19:59N 44°20' E 028°41'0 0.0
2018-Jun-10 19:23N 44°20' E 028°41'0 0.0
2018-Jun-10 18:56N 44°20' E 028°41'0 0.0
2018-Jun-10 18:29N 44°20' E 028°41'0 0.0
2018-Jun-10 17:59N 44°20' E 028°41'0 0.1
2018-Jun-10 17:30N 44°20' E 028°41'4 8.7
2018-Jun-10 17:00N 44°18' E 028°46'4 7.4
2018-Jun-10 16:30N 44°19' E 028°42'1 2.2
2018-Jun-10 15:57N 44°20' E 028°41'0 0.0
2018-Jun-10 15:30N 44°20' E 028°41'0 0.0
2018-Jun-10 15:00N 44°20' E 028°41'0 0.0
2018-Jun-10 14:30N 44°20' E 028°41'0 0.0
2018-Jun-10 13:30N 44°20' E 028°41'0 0.0
2018-Jun-10 13:00N 44°20' E 028°41'0 0.0
2018-Jun-10 12:21N 44°20' E 028°41'0 0.0
2018-Jun-10 12:00N 44°20' E 028°41'0 0.0
2018-Jun-10 11:24N 44°20' E 028°41'0 0.0
2018-Jun-10 10:57N 44°20' E 028°41'0 0.0
2018-Jun-10 10:27N 44°20' E 028°41'0 0.0
2018-Jun-10 10:00N 44°20' E 028°41'2 3.3
2018-Jun-10 09:30N 44°19' E 028°42'2 3.0
2018-Jun-10 09:01N 44°18' E 028°44'3 5.5
2018-Jun-10 08:28N 44°20' E 028°41'0 0.0
2018-Jun-10 07:58N 44°20' E 028°41'2 3.3
2018-Jun-10 07:29N 44°19' E 028°42'3 6.7
2018-Jun-10 06:59N 44°18' E 028°47'0 0.2
2018-Jun-10 06:29N 44°18' E 028°47'0 0.3
2018-Jun-10 05:57N 44°18' E 028°46'1 3.3
2018-Jun-10 05:30N 44°18' E 028°44'3 6.0
2018-Jun-10 04:59N 44°20' E 028°41'0 0.0
2018-Jun-10 04:29N 44°20' E 028°41'0 0.0
2018-Jun-10 03:59N 44°20' E 028°41'0 0.0
2018-Jun-10 03:29N 44°20' E 028°41'0 0.0
2018-Jun-10 02:59N 44°20' E 028°41'0 0.0
2018-Jun-10 02:29N 44°20' E 028°41'0 0.0
2018-Jun-10 01:59N 44°20' E 028°41'0 0.0
2018-Jun-10 01:29N 44°20' E 028°41'0 0.0
2018-Jun-10 00:59N 44°20' E 028°41'0 0.0
2018-Jun-10 00:29N 44°20' E 028°41'0 0.0
2018-Jun-09 23:56N 44°20' E 028°41'0 0.0
2018-Jun-09 23:29N 44°20' E 028°41'0 0.0
2018-Jun-09 22:59N 44°20' E 028°41'0 0.0
2018-Jun-09 22:29N 44°20' E 028°41'0 0.0
2018-Jun-09 21:59N 44°20' E 028°41'0 0.0
2018-Jun-09 21:29N 44°20' E 028°41'0 0.0
2018-Jun-09 20:59N 44°20' E 028°41'0 0.0
2018-Jun-09 20:29N 44°20' E 028°41'0 0.0
2018-Jun-09 19:59N 44°20' E 028°41'0 0.0
2018-Jun-09 19:29N 44°20' E 028°41'  
Track history (hours):
 
Tides and Currents Weather Stations Pressure Air Temp Water Temp Dewpoint Dewpoint Depression Visibility Wind Speed Wind Dir Waves Ship Positions

Bucuresti

Last reported at 2018-Jun-19 19:26 UTC. Time now 2018-Jun-19 19:48 UTC.
Position N 44°20' E 028°41'.

Length 26 m; draft 3.2 m.

Type: Tug. MMSI: 264900303.

Date/timePositionNaut miles runAvg speedWind from/ knotsBaromVisibWave heightAir tempDewpointWater temp
2018-Jun-19 19:26N 44°20' E 028°41'0 0.0
2018-Jun-19 18:59N 44°20' E 028°41'0 0.0
2018-Jun-19 18:29N 44°20' E 028°41'0 0.0
2018-Jun-19 17:56N 44°20' E 028°41'0 0.0
2018-Jun-19 17:23N 44°20' E 028°41'0 0.0
2018-Jun-19 16:59N 44°20' E 028°41'0 0.0
2018-Jun-19 16:29N 44°20' E 028°41'0 0.0
2018-Jun-19 15:59N 44°20' E 028°41'0 0.0
2018-Jun-19 15:29N 44°20' E 028°41'0 0.0
2018-Jun-19 14:56N 44°20' E 028°41'0 0.0
2018-Jun-19 14:29N 44°20' E 028°41'0 0.0
2018-Jun-19 13:59N 44°20' E 028°41'0 0.0
2018-Jun-19 13:29N 44°20' E 028°41'0 0.0
2018-Jun-19 12:56N 44°20' E 028°41'0 0.0
2018-Jun-19 12:26N 44°20' E 028°41'0 0.0
2018-Jun-19 11:59N 44°20' E 028°41'0 0.0
2018-Jun-19 11:29N 44°20' E 028°41'0 0.0
2018-Jun-19 10:59N 44°20' E 028°41'0 0.0
2018-Jun-19 10:29N 44°20' E 028°41'0 0.0
2018-Jun-19 09:59N 44°20' E 028°41'0 0.0
2018-Jun-19 09:29N 44°20' E 028°41'0 0.0
2018-Jun-19 08:59N 44°20' E 028°41'0 0.0
2018-Jun-19 08:29N 44°20' E 028°41'0 0.0
2018-Jun-19 07:59N 44°20' E 028°41'0 0.0
2018-Jun-19 07:29N 44°20' E 028°41'0 0.0
2018-Jun-19 07:00N 44°20' E 028°41'0 0.0
2018-Jun-19 06:29N 44°20' E 028°41'0 0.0
2018-Jun-19 05:59N 44°20' E 028°41'0 0.0
2018-Jun-19 05:26N 44°20' E 028°41'0 0.0
2018-Jun-19 04:59N 44°20' E 028°41'0 0.0
2018-Jun-19 04:29N 44°20' E 028°41'0 0.0
2018-Jun-19 03:59N 44°20' E 028°41'0 0.0
2018-Jun-19 03:29N 44°20' E 028°41'0 0.0
2018-Jun-19 02:59N 44°20' E 028°41'0 0.0
2018-Jun-19 02:29N 44°20' E 028°41'0 0.0
2018-Jun-19 01:59N 44°20' E 028°41'0 0.0
2018-Jun-19 01:29N 44°20' E 028°41'0 0.0
2018-Jun-19 00:59N 44°20' E 028°41'0 0.0
2018-Jun-19 00:29N 44°20' E 028°41'0 0.0
2018-Jun-18 23:59N 44°20' E 028°41'0 0.0
2018-Jun-18 23:29N 44°20' E 028°41'0 0.0
2018-Jun-18 22:59N 44°20' E 028°41'0 0.0
2018-Jun-18 22:29N 44°20' E 028°41'0 0.0
2018-Jun-18 21:56N 44°20' E 028°41'0 0.0
2018-Jun-18 21:29N 44°20' E 028°41'0 0.0
2018-Jun-18 20:59N 44°20' E 028°41'0 0.0
2018-Jun-18 20:29N 44°20' E 028°41'0 0.0
2018-Jun-18 19:59N 44°20' E 028°41'0 0.0
2018-Jun-18 19:29N 44°20' E 028°41'0 0.0
2018-Jun-18 18:59N 44°20' E 028°41'0 0.0
2018-Jun-18 18:29N 44°20' E 028°41'0 0.0
2018-Jun-18 17:59N 44°20' E 028°41'0 0.0
2018-Jun-18 17:29N 44°20' E 028°41'0 0.0
2018-Jun-18 16:56N 44°20' E 028°41'0 0.0
2018-Jun-18 16:29N 44°20' E 028°41'0 0.0
2018-Jun-18 15:59N 44°20' E 028°41'0 0.0
2018-Jun-18 15:17N 44°20' E 028°41'0 0.0
2018-Jun-18 14:59N 44°20' E 028°41'0 0.0
2018-Jun-18 14:29N 44°20' E 028°41'0 0.0
2018-Jun-18 13:59N 44°20' E 028°41'0 0.0
2018-Jun-18 13:26N 44°20' E 028°41'0 0.0
2018-Jun-18 12:56N 44°20' E 028°41'0 0.0
2018-Jun-18 12:29N 44°20' E 028°41'2 4.5
2018-Jun-18 11:59N 44°18' E 028°43'3 4.4
2018-Jun-18 11:20N 44°18' E 028°47'0 0.0
2018-Jun-18 10:59N 44°18' E 028°47'0 0.0
2018-Jun-18 10:29N 44°18' E 028°47'0 0.0
2018-Jun-18 09:56N 44°18' E 028°46'0 0.0
2018-Jun-18 09:26N 44°18' E 028°47'0 0.0
2018-Jun-18 08:59N 44°18' E 028°47'0 0.0
2018-Jun-18 08:29N 44°18' E 028°46'4 7.9
2018-Jun-18 08:01N 44°19' E 028°42'1 2.0
2018-Jun-18 07:27N 44°20' E 028°41'0 0.0
2018-Jun-18 07:00N 44°20' E 028°41'0 0.0
2018-Jun-18 06:30N 44°20' E 028°41'0 0.0
2018-Jun-18 06:00N 44°20' E 028°41'0 0.0
2018-Jun-18 05:30N 44°20' E 028°41'0 0.0
2018-Jun-18 05:00N 44°20' E 028°41'0 0.0
2018-Jun-18 04:30N 44°20' E 028°41'0 0.0
2018-Jun-18 04:00N 44°20' E 028°41'0 0.0
2018-Jun-18 03:30N 44°20' E 028°41'0 0.0
2018-Jun-18 03:00N 44°20' E 028°41'0 0.0
2018-Jun-18 02:30N 44°20' E 028°41'0 0.0
2018-Jun-18 02:00N 44°20' E 028°41'0 0.0
2018-Jun-18 01:30N 44°20' E 028°41'0 0.0
2018-Jun-18 01:00N 44°20' E 028°41'0 0.0
2018-Jun-18 00:30N 44°20' E 028°41'0 0.0
2018-Jun-18 00:00N 44°20' E 028°41'0 0.0
2018-Jun-17 23:30N 44°20' E 028°41'0 0.0
2018-Jun-17 23:00N 44°20' E 028°41'0 0.0
2018-Jun-17 22:30N 44°20' E 028°41'0 0.0
2018-Jun-17 22:00N 44°20' E 028°41'0 0.0
2018-Jun-17 21:30N 44°20' E 028°41'0 0.0
2018-Jun-17 21:00N 44°20' E 028°41'0 0.0
2018-Jun-17 20:30N 44°20' E 028°41'0 0.0
2018-Jun-17 19:57N 44°20' E 028°41'0 0.0
2018-Jun-17 19:30N 44°20' E 028°41'0 0.0
2018-Jun-17 19:00N 44°20' E 028°41'0 0.0
2018-Jun-17 18:30N 44°20' E 028°41'0 0.0
2018-Jun-17 18:00N 44°20' E 028°41'0 0.0
2018-Jun-17 17:30N 44°20' E 028°41'0 0.0
2018-Jun-17 17:00N 44°20' E 028°41'0 0.0
2018-Jun-17 16:30N 44°20' E 028°41'0 0.0
2018-Jun-17 16:00N 44°20' E 028°41'0 0.0
2018-Jun-17 15:30N 44°20' E 028°41'0 0.0
2018-Jun-17 15:00N 44°20' E 028°41'0 0.0
2018-Jun-17 14:27N 44°20' E 028°41'0 0.0
2018-Jun-17 14:00N 44°20' E 028°41'0 0.0
2018-Jun-17 13:27N 44°20' E 028°41'0 0.0
2018-Jun-17 13:00N 44°20' E 028°41'0 0.0
2018-Jun-17 12:30N 44°20' E 028°41'0 0.0
2018-Jun-17 12:00N 44°20' E 028°41'0 0.0
2018-Jun-17 11:24N 44°20' E 028°41'0 0.0
2018-Jun-17 11:00N 44°20' E 028°41'0 0.0
2018-Jun-17 10:30N 44°20' E 028°41'0 0.0
2018-Jun-17 10:00N 44°20' E 028°41'0 0.0
2018-Jun-17 09:30N 44°20' E 028°41'0 0.0
2018-Jun-17 08:57N 44°20' E 028°41'0 0.0
2018-Jun-17 08:30N 44°20' E 028°41'0 0.0
2018-Jun-17 07:57N 44°20' E 028°41'0 0.0
2018-Jun-17 07:30N 44°20' E 028°41'0 0.0
2018-Jun-17 07:00N 44°20' E 028°41'0 0.0
2018-Jun-17 06:30N 44°20' E 028°41'0 0.0
2018-Jun-17 05:54N 44°20' E 028°41'0 0.0
2018-Jun-17 05:27N 44°20' E 028°41'0 0.0
2018-Jun-17 05:00N 44°20' E 028°41'0 0.0
2018-Jun-17 04:30N 44°20' E 028°41'0 0.0
2018-Jun-17 04:00N 44°20' E 028°41'0 0.0
2018-Jun-17 03:30N 44°20' E 028°41'0 0.0
2018-Jun-17 03:00N 44°20' E 028°41'0 0.0
2018-Jun-17 02:30N 44°20' E 028°41'0 0.0
2018-Jun-17 02:00N 44°20' E 028°41'0 0.0
2018-Jun-17 01:30N 44°20' E 028°41'0 0.0
2018-Jun-17 01:00N 44°20' E 028°41'0 0.0
2018-Jun-17 00:30N 44°20' E 028°41'0 0.0
2018-Jun-17 00:00N 44°20' E 028°41'0 0.0
2018-Jun-16 23:30N 44°20' E 028°41'0 0.0
2018-Jun-16 23:00N 44°20' E 028°41'0 0.0
2018-Jun-16 22:27N 44°20' E 028°41'0 0.0
2018-Jun-16 22:00N 44°20' E 028°41'0 0.0
2018-Jun-16 21:30N 44°20' E 028°41'0 0.0
2018-Jun-16 21:00N 44°20' E 028°41'0 0.0
2018-Jun-16 20:30N 44°20' E 028°41'0 0.0
2018-Jun-16 20:00N 44°20' E 028°41'0 0.0
2018-Jun-16 19:30N 44°20' E 028°41'0 0.0
2018-Jun-16 18:57N 44°20' E 028°41'0 0.0
2018-Jun-16 18:30N 44°20' E 028°41'0 0.8
2018-Jun-16 18:00N 44°20' E 028°41'0 0.4
2018-Jun-16 17:28N 44°20' E 028°41'0 0.8
2018-Jun-16 16:58N 44°20' E 028°41'0 0.4
2018-Jun-16 16:28N 44°20' E 028°41'0 0.9
2018-Jun-16 16:00N 44°20' E 028°41'0 0.0
2018-Jun-16 15:30N 44°20' E 028°41'0 0.0
2018-Jun-16 15:00N 44°20' E 028°41'0 0.0
2018-Jun-16 14:30N 44°20' E 028°41'0 0.0
2018-Jun-16 14:00N 44°20' E 028°41'0 0.0
2018-Jun-16 13:30N 44°20' E 028°41'0 0.0
2018-Jun-16 13:00N 44°20' E 028°41'0 0.0
2018-Jun-16 12:30N 44°20' E 028°41'0 0.0
2018-Jun-16 12:00N 44°20' E 028°41'0 0.0
2018-Jun-16 11:30N 44°20' E 028°41'0 0.0
2018-Jun-16 10:57N 44°20' E 028°41'0 0.0
2018-Jun-16 10:30N 44°20' E 028°41'0 0.0
2018-Jun-16 10:00N 44°20' E 028°41'0 0.0
2018-Jun-16 09:21N 44°20' E 028°41'0 0.0
2018-Jun-16 09:00N 44°20' E 028°41'0 0.0
2018-Jun-16 08:30N 44°20' E 028°41'0 0.0
2018-Jun-16 08:00N 44°20' E 028°41'0 0.0
2018-Jun-16 07:30N 44°20' E 028°41'0 0.0
2018-Jun-16 07:00N 44°20' E 028°41'0 0.0
2018-Jun-16 06:30N 44°20' E 028°41'0 0.0
2018-Jun-16 06:00N 44°20' E 028°41'0 0.0
2018-Jun-16 05:30N 44°20' E 028°41'0 0.0
2018-Jun-16 05:00N 44°20' E 028°41'0 0.0
2018-Jun-16 04:30N 44°20' E 028°41'0 0.0
2018-Jun-16 04:00N 44°20' E 028°41'0 0.0
2018-Jun-16 03:30N 44°20' E 028°41'0 0.0
2018-Jun-16 03:00N 44°20' E 028°41'0 0.0
2018-Jun-16 02:30N 44°20' E 028°41'0 0.0
2018-Jun-16 02:00N 44°20' E 028°41'0 0.0
2018-Jun-16 01:30N 44°20' E 028°41'0 0.0
2018-Jun-16 01:00N 44°20' E 028°41'0 0.0
2018-Jun-16 00:30N 44°20' E 028°41'0 0.0
2018-Jun-16 00:00N 44°20' E 028°41'0 0.0
2018-Jun-15 23:30N 44°20' E 028°41'0 0.0
2018-Jun-15 23:00N 44°20' E 028°41'0 0.0
2018-Jun-15 22:30N 44°20' E 028°41'0 0.0
2018-Jun-15 22:00N 44°20' E 028°41'0 0.0
2018-Jun-15 21:30N 44°20' E 028°41'0 0.0
2018-Jun-15 21:00N 44°20' E 028°41'0 0.0
2018-Jun-15 20:30N 44°20' E 028°41'0 0.0
2018-Jun-15 20:00N 44°20' E 028°41'0 0.0
2018-Jun-15 19:30N 44°20' E 028°41'0 0.0
2018-Jun-15 19:00N 44°20' E 028°41'0 0.0
2018-Jun-15 18:30N 44°20' E 028°41'0 0.0
2018-Jun-15 18:00N 44°20' E 028°41'0 0.0
2018-Jun-15 17:24N 44°20' E 028°41'0 0.0
2018-Jun-15 17:00N 44°20' E 028°41'0 0.0
2018-Jun-15 16:30N 44°20' E 028°41'0 0.0
2018-Jun-15 16:00N 44°20' E 028°41'0 0.0
2018-Jun-15 15:27N 44°20' E 028°41'0 0.0
2018-Jun-15 15:00N 44°20' E 028°41'0 0.0
2018-Jun-15 14:30N 44°20' E 028°41'0 0.0
2018-Jun-15 14:00N 44°20' E 028°41'0 0.0
2018-Jun-15 13:30N 44°20' E 028°41'0 0.0
2018-Jun-15 13:00N 44°20' E 028°41'0 0.0
2018-Jun-15 12:30N 44°20' E 028°41'0 0.0
2018-Jun-15 12:00N 44°20' E 028°41'0 0.0
2018-Jun-15 11:30N 44°20' E 028°41'0 0.0
2018-Jun-15 11:00N 44°20' E 028°41'0 0.0
2018-Jun-15 10:30N 44°20' E 028°41'0 0.0
2018-Jun-15 10:00N 44°20' E 028°41'0 0.0
2018-Jun-15 09:30N 44°20' E 028°41'0 0.0
2018-Jun-15 09:00N 44°20' E 028°41'0 0.0
2018-Jun-15 08:30N 44°20' E 028°41'0 0.0
2018-Jun-15 08:00N 44°20' E 028°41'0 0.0
2018-Jun-15 07:30N 44°20' E 028°41'0 0.0
2018-Jun-15 07:00N 44°20' E 028°41'0 0.0
2018-Jun-15 06:24N 44°20' E 028°41'0 0.0
2018-Jun-15 06:00N 44°20' E 028°41'0 0.0
2018-Jun-15 05:24N 44°20' E 028°41'0 0.0
2018-Jun-15 04:57N 44°20' E 028°41'0 0.0
2018-Jun-15 04:30N 44°20' E 028°41'0 0.0
2018-Jun-15 04:00N 44°20' E 028°41'0 0.0
2018-Jun-15 03:30N 44°20' E 028°41'0 0.0
2018-Jun-15 03:00N 44°20' E 028°41'0 0.0
2018-Jun-15 02:30N 44°20' E 028°41'0 0.0
2018-Jun-15 02:00N 44°20' E 028°41'0 0.0
2018-Jun-15 01:30N 44°20' E 028°41'0 0.0
2018-Jun-15 01:00N 44°20' E 028°41'0 0.0
2018-Jun-15 00:27N 44°20' E 028°41'0 0.0
2018-Jun-14 23:57N 44°20' E 028°41'0 0.0
2018-Jun-14 23:30N 44°20' E 028°41'0 0.0
2018-Jun-14 23:00N 44°20' E 028°41'0 0.0
2018-Jun-14 22:30N 44°20' E 028°41'0 0.0
2018-Jun-14 22:00N 44°20' E 028°41'0 0.0
2018-Jun-14 21:30N 44°20' E 028°41'0 0.0
2018-Jun-14 20:57N 44°20' E 028°41'0 0.0
2018-Jun-14 20:27N 44°20' E 028°41'0 0.0
2018-Jun-14 20:00N 44°20' E 028°41'0 0.0
2018-Jun-14 19:24N 44°20' E 028°41'0 0.0
2018-Jun-14 18:59N 44°20' E 028°41'0 0.0
2018-Jun-14 18:29N 44°20' E 028°41'0 0.0
2018-Jun-14 18:00N 44°20' E 028°41'0 0.0
2018-Jun-14 16:21N 44°20' E 028°41'0 0.0
2018-Jun-14 15:44N 44°20' E 028°41'0 0.0
2018-Jun-14 15:15N 44°20' E 028°41'0 0.0
2018-Jun-14 14:56N 44°20' E 028°41'0 0.0
2018-Jun-14 14:18N 44°20' E 028°41'0 0.0
2018-Jun-14 13:59N 44°20' E 028°41'0 0.0
2018-Jun-14 13:16N 44°20' E 028°41'0 0.0
2018-Jun-14 13:00N 44°20' E 028°41'0 0.0
2018-Jun-14 12:30N 44°20' E 028°41'0 0.0
2018-Jun-14 12:00N 44°20' E 028°41'0 0.0
2018-Jun-14 11:30N 44°20' E 028°41'0 0.0
2018-Jun-14 11:00N 44°20' E 028°41'0 0.0
2018-Jun-14 10:30N 44°20' E 028°41'0 0.0
2018-Jun-14 10:00N 44°20' E 028°41'0 0.0
2018-Jun-14 09:30N 44°20' E 028°41'0 0.0
2018-Jun-14 09:00N 44°20' E 028°41'0 0.0
2018-Jun-14 08:30N 44°20' E 028°41'2 3.2
2018-Jun-14 08:00N 44°19' E 028°43'2 3.5
2018-Jun-14 07:31N 44°18' E 028°45'3 6.3
2018-Jun-14 07:00N 44°20' E 028°41'0 0.0
2018-Jun-14 06:24N 44°20' E 028°41'0 0.0
2018-Jun-14 06:00N 44°20' E 028°41'0 0.0
2018-Jun-14 05:30N 44°20' E 028°41'0 0.0
2018-Jun-14 05:00N 44°20' E 028°41'0 0.0
2018-Jun-14 04:30N 44°20' E 028°41'0 0.0
2018-Jun-14 04:00N 44°20' E 028°41'0 0.0
2018-Jun-14 03:30N 44°20' E 028°41'0 0.0
2018-Jun-14 02:57N 44°20' E 028°41'0 0.0
2018-Jun-14 02:30N 44°20' E 028°41'0 0.0
2018-Jun-14 02:00N 44°20' E 028°41'0 0.0
2018-Jun-14 01:27N 44°20' E 028°41'0 0.0
2018-Jun-14 00:57N 44°20' E 028°41'0 0.0
2018-Jun-14 00:24N 44°20' E 028°41'0 0.0
2018-Jun-13 23:57N 44°20' E 028°41'0 0.0
2018-Jun-13 23:30N 44°20' E 028°41'0 0.0
2018-Jun-13 23:00N 44°20' E 028°41'0 0.0
2018-Jun-13 22:30N 44°20' E 028°41'0 0.0
2018-Jun-13 22:00N 44°20' E 028°41'0 0.0
2018-Jun-13 21:30N 44°20' E 028°41'0 0.0
2018-Jun-13 20:57N 44°20' E 028°41'0 0.0
2018-Jun-13 20:24N 44°20' E 028°41'0 0.0
2018-Jun-13 20:00N 44°20' E 028°41'0 0.0
2018-Jun-13 19:30N 44°20' E 028°41'0 0.0
2018-Jun-13 19:00N 44°20' E 028°41'0 0.0
2018-Jun-13 18:30N 44°20' E 028°41'0 0.0
2018-Jun-13 17:51N 44°20' E 028°41'0 0.0
2018-Jun-13 17:30N 44°20' E 028°41'0 0.0
2018-Jun-13 16:45N 44°20' E 028°41'0 0.0
2018-Jun-13 16:24N 44°20' E 028°41'0 0.0
2018-Jun-13 15:57N 44°20' E 028°41'0 0.0
2018-Jun-13 15:27N 44°20' E 028°41'0 0.0
2018-Jun-13 15:00N 44°20' E 028°41'0 0.0
2018-Jun-13 14:30N 44°20' E 028°41'0 0.0
2018-Jun-13 14:00N 44°20' E 028°41'0 0.0
2018-Jun-13 13:27N 44°20' E 028°41'0 0.0
2018-Jun-13 13:00N 44°20' E 028°41'0 0.0
2018-Jun-13 12:30N 44°20' E 028°41'0 0.0
2018-Jun-13 12:00N 44°20' E 028°41'0 0.0
2018-Jun-13 11:30N 44°20' E 028°41'0 0.0
2018-Jun-13 11:00N 44°20' E 028°41'0 0.0
2018-Jun-13 10:30N 44°20' E 028°41'0 0.0
2018-Jun-13 10:00N 44°20' E 028°41'2 4.5
2018-Jun-13 09:30N 44°19' E 028°43'3 5.2
2018-Jun-13 09:00N 44°18' E 028°47'0 0.1
2018-Jun-13 08:30N 44°18' E 028°47'0 0.2
2018-Jun-13 07:58N 44°18' E 028°47'0 0.2
2018-Jun-13 07:30N 44°18' E 028°47'4 9.0
2018-Jun-13 07:01N 44°20' E 028°41'0 0.5
2018-Jun-13 06:28N 44°20' E 028°41'0 0.0
2018-Jun-13 05:46N 44°20' E 028°41'0 0.0
2018-Jun-13 05:19N 44°20' E 028°41'0 0.0
2018-Jun-13 04:58N 44°20' E 028°41'0 0.0
2018-Jun-13 04:28N 44°20' E 028°41'0 0.0
2018-Jun-13 03:58N 44°20' E 028°41'0 0.0
2018-Jun-13 03:28N 44°20' E 028°41'0 0.0
2018-Jun-13 02:58N 44°20' E 028°41'0 0.0
2018-Jun-13 02:28N 44°20' E 028°41'0 0.0
2018-Jun-13 01:58N 44°20' E 028°41'0 0.0
2018-Jun-13 01:28N 44°20' E 028°41'0 0.0
2018-Jun-13 00:58N 44°20' E 028°41'0 0.0
2018-Jun-13 00:28N 44°20' E 028°41'0 0.0
2018-Jun-12 23:58N 44°20' E 028°41'0 0.0
2018-Jun-12 23:28N 44°20' E 028°41'0 0.0
2018-Jun-12 22:58N 44°20' E 028°41'0 0.0
2018-Jun-12 22:28N 44°20' E 028°41'0 0.0
2018-Jun-12 21:58N 44°20' E 028°41'0 0.0
2018-Jun-12 21:28N 44°20' E 028°41'0 0.0
2018-Jun-12 20:58N 44°20' E 028°41'0 0.0
2018-Jun-12 20:28N 44°20' E 028°41'0 0.0
2018-Jun-12 19:55N 44°20' E 028°41'0 0.0
2018-Jun-12 19:28N 44°20' E 028°41'0 0.0
2018-Jun-12 18:58N 44°20' E 028°41'0 0.0
2018-Jun-12 18:28N 44°20' E 028°41'0 0.0
2018-Jun-12 17:52N 44°20' E 028°41'3 7.7
2018-Jun-12 17:30N 44°18' E 028°44'2 3.3
2018-Jun-12 16:55N 44°18' E 028°47'0 0.0
2018-Jun-12 16:28N 44°18' E 028°47'0 0.1
2018-Jun-12 15:58N 44°18' E 028°47'0 0.3
2018-Jun-12 15:30N 44°18' E 028°47'1 1.1
2018-Jun-12 15:00N 44°18' E 028°46'4 8.0
2018-Jun-12 14:30N 44°20' E 028°41'0 0.0
2018-Jun-12 14:00N 44°20' E 028°41'0 0.0
2018-Jun-12 13:27N 44°20' E 028°41'0 0.0
2018-Jun-12 12:42N 44°20' E 028°41'0 0.0
2018-Jun-12 12:24N 44°20' E 028°41'0 0.0
2018-Jun-12 12:00N 44°20' E 028°41'2 4.3
2018-Jun-12 11:30N 44°19' E 028°43'3 4.9
2018-Jun-12 10:58N 44°18' E 028°47'0 0.0
2018-Jun-12 10:28N 44°18' E 028°47'0 0.0
2018-Jun-12 09:58N 44°18' E 028°47'0 0.0
2018-Jun-12 09:28N 44°18' E 028°47'0 0.0
2018-Jun-12 08:58N 44°18' E 028°47'0 0.0
2018-Jun-12 08:28N 44°18' E 028°47'0 0.0
2018-Jun-12 07:58N 44°18' E 028°47'0 0.0
2018-Jun-12 07:29N 44°18' E 028°47'4 9.3
2018-Jun-12 07:00N 44°20' E 028°41'0 0.5
2018-Jun-12 06:29N 44°20' E 028°41'0 0.5
2018-Jun-12 05:56N 44°21' E 028°41'0 0.4
2018-Jun-12 05:30N 44°20' E 028°41'0 0.3
2018-Jun-12 04:59N 44°20' E 028°41'0 0.0
2018-Jun-12 04:29N 44°20' E 028°41'0 0.0
2018-Jun-12 03:59N 44°20' E 028°41'0 0.0
2018-Jun-12 03:29N 44°20' E 028°41'0 0.0
2018-Jun-12 02:59N 44°20' E 028°41'0 0.0
2018-Jun-12 02:26N 44°20' E 028°41'0 0.0
2018-Jun-12 01:56N 44°20' E 028°41'0 0.0
2018-Jun-12 01:29N 44°20' E 028°41'0 0.0
2018-Jun-12 00:59N 44°20' E 028°41'0 0.0
2018-Jun-12 00:29N 44°20' E 028°41'0 0.0
2018-Jun-11 23:59N 44°20' E 028°41'0 0.0
2018-Jun-11 23:29N 44°20' E 028°41'0 0.0
2018-Jun-11 22:59N 44°20' E 028°41'0 0.0
2018-Jun-11 22:29N 44°20' E 028°41'0 0.0
2018-Jun-11 21:59N 44°20' E 028°41'0 0.0
2018-Jun-11 21:29N 44°20' E 028°41'0 0.0
2018-Jun-11 20:59N 44°20' E 028°41'0 0.0
2018-Jun-11 20:29N 44°20' E 028°41'0 0.0
2018-Jun-11 19:59N 44°20' E 028°41'0 0.0
2018-Jun-11 19:29N 44°20' E 028°41'0 0.0
2018-Jun-11 18:59N 44°20' E 028°41'0 0.0
2018-Jun-11 18:26N 44°20' E 028°41'0 0.0
2018-Jun-11 17:59N 44°20' E 028°41'0 0.0
2018-Jun-11 17:29N 44°20' E 028°41'0 0.0
2018-Jun-11 16:59N 44°20' E 028°41'0 0.0
2018-Jun-11 16:29N 44°20' E 028°41'0 0.0
2018-Jun-11 15:50N 44°20' E 028°41'0 0.0
2018-Jun-11 15:29N 44°20' E 028°41'0 0.0
2018-Jun-11 14:59N 44°20' E 028°41'0 0.0
2018-Jun-11 14:08N 44°20' E 028°41'0 0.0
2018-Jun-11 13:56N 44°20' E 028°41'0 0.0
2018-Jun-11 13:29N 44°20' E 028°41'0 0.0
2018-Jun-11 12:59N 44°20' E 028°41'0 0.0
2018-Jun-11 12:26N 44°20' E 028°41'0 0.0
2018-Jun-11 11:56N 44°20' E 028°41'2 5.3
2018-Jun-11 11:30N 44°18' E 028°43'2 4.6
2018-Jun-11 10:59N 44°18' E 028°47'0 0.0
2018-Jun-11 10:29N 44°18' E 028°47'4 8.1
2018-Jun-11 10:00N 44°19' E 028°42'1 1.4
2018-Jun-11 09:17N 44°20' E 028°41'0 0.0
2018-Jun-11 08:59N 44°20' E 028°41'0 0.0
2018-Jun-11 08:29N 44°20' E 028°41'0 0.0
2018-Jun-11 07:59N 44°20' E 028°41'0 0.0
2018-Jun-11 07:29N 44°20' E 028°41'0 0.0
2018-Jun-11 06:56N 44°20' E 028°41'0 0.0
2018-Jun-11 06:29N 44°20' E 028°41'0 0.0
2018-Jun-11 05:59N 44°20' E 028°41'0 0.0
2018-Jun-11 05:29N 44°20' E 028°41'0 0.0
2018-Jun-11 04:59N 44°20' E 028°41'0 0.0
2018-Jun-11 04:29N 44°20' E 028°41'0 0.0
2018-Jun-11 03:59N 44°20' E 028°41'0 0.0
2018-Jun-11 03:29N 44°20' E 028°41'0 0.0
2018-Jun-11 02:56N 44°20' E 028°41'0 0.0
2018-Jun-11 02:29N 44°20' E 028°41'0 0.0
2018-Jun-11 01:59N 44°20' E 028°41'0 0.0
2018-Jun-11 01:29N 44°20' E 028°41'0 0.0
2018-Jun-11 00:56N 44°20' E 028°41'0 0.0
2018-Jun-11 00:29N 44°20' E 028°41'0 0.0
2018-Jun-10 23:59N 44°20' E 028°41'0 0.0
2018-Jun-10 23:29N 44°20' E 028°41'0 0.0
2018-Jun-10 22:59N 44°20' E 028°41'0 0.0
2018-Jun-10 22:29N 44°20' E 028°41'0 0.0
2018-Jun-10 21:59N 44°20' E 028°41'0 0.0
2018-Jun-10 21:26N 44°20' E 028°41'0 0.0
2018-Jun-10 20:59N 44°20' E 028°41'0 0.0
2018-Jun-10 20:29N 44°20' E 028°41'0 0.0
2018-Jun-10 19:59N 44°20' E 028°41'0 0.0
2018-Jun-10 19:23N 44°20' E 028°41'0 0.0
2018-Jun-10 18:56N 44°20' E 028°41'0 0.0
2018-Jun-10 18:29N 44°20' E 028°41'0 0.0
2018-Jun-10 17:59N 44°20' E 028°41'0 0.1
2018-Jun-10 17:30N 44°20' E 028°41'4 8.7
2018-Jun-10 17:00N 44°18' E 028°46'4 7.4
2018-Jun-10 16:30N 44°19' E 028°42'1 2.2
2018-Jun-10 15:57N 44°20' E 028°41'0 0.0
2018-Jun-10 15:30N 44°20' E 028°41'0 0.0
2018-Jun-10 15:00N 44°20' E 028°41'0 0.0
2018-Jun-10 14:30N 44°20' E 028°41'0 0.0
2018-Jun-10 13:30N 44°20' E 028°41'0 0.0
2018-Jun-10 13:00N 44°20' E 028°41'0 0.0
2018-Jun-10 12:21N 44°20' E 028°41'0 0.0
2018-Jun-10 12:00N 44°20' E 028°41'0 0.0
2018-Jun-10 11:24N 44°20' E 028°41'0 0.0
2018-Jun-10 10:57N 44°20' E 028°41'0 0.0
2018-Jun-10 10:27N 44°20' E 028°41'0 0.0
2018-Jun-10 10:00N 44°20' E 028°41'2 3.3
2018-Jun-10 09:30N 44°19' E 028°42'2 3.0
2018-Jun-10 09:01N 44°18' E 028°44'3 5.5
2018-Jun-10 08:28N 44°20' E 028°41'0 0.0
2018-Jun-10 07:58N 44°20' E 028°41'2 3.3
2018-Jun-10 07:29N 44°19' E 028°42'3 6.7
2018-Jun-10 06:59N 44°18' E 028°47'0 0.2
2018-Jun-10 06:29N 44°18' E 028°47'0 0.3
2018-Jun-10 05:57N 44°18' E 028°46'1 3.3
2018-Jun-10 05:30N 44°18' E 028°44'3 6.0
2018-Jun-10 04:59N 44°20' E 028°41'0 0.0
2018-Jun-10 04:29N 44°20' E 028°41'0 0.0
2018-Jun-10 03:59N 44°20' E 028°41'0 0.0
2018-Jun-10 03:29N 44°20' E 028°41'0 0.0
2018-Jun-10 02:59N 44°20' E 028°41'0 0.0
2018-Jun-10 02:29N 44°20' E 028°41'0 0.0
2018-Jun-10 01:59N 44°20' E 028°41'0 0.0
2018-Jun-10 01:29N 44°20' E 028°41'0 0.0
2018-Jun-10 00:59N 44°20' E 028°41'0 0.0
2018-Jun-10 00:29N 44°20' E 028°41'0 0.0
2018-Jun-09 23:56N 44°20' E 028°41'0 0.0
2018-Jun-09 23:29N 44°20' E 028°41'0 0.0
2018-Jun-09 22:59N 44°20' E 028°41'0 0.0
2018-Jun-09 22:29N 44°20' E 028°41'0 0.0
2018-Jun-09 21:59N 44°20' E 028°41'0 0.0
2018-Jun-09 21:29N 44°20' E 028°41'0 0.0
2018-Jun-09 20:59N 44°20' E 028°41'0 0.0
2018-Jun-09 20:29N 44°20' E 028°41'0 0.0
2018-Jun-09 19:59N 44°20' E 028°41'0 0.0
2018-Jun-09 19:29N 44°20' E 028°41'  

Dump ship's entire track history